createdAt,value
2018-08-10T00:00:24.654Z,4.10
2018-08-10T00:02:56.240Z,5.63
2018-08-10T00:05:28.023Z,4.40
2018-08-10T00:07:59.199Z,5.17
2018-08-10T00:10:35.004Z,3.90
2018-08-10T00:13:06.324Z,5.23
2018-08-10T00:15:41.440Z,6.00
2018-08-10T00:18:12.985Z,3.27
2018-08-10T00:20:43.924Z,6.07
2018-08-10T00:23:15.207Z,6.70
2018-08-10T00:25:46.136Z,4.70
2018-08-10T00:28:17.472Z,9.00
2018-08-10T00:30:49.281Z,3.17
2018-08-10T00:33:21.871Z,4.57
2018-08-10T00:35:52.924Z,6.63
2018-08-10T00:38:24.356Z,4.43
2018-08-10T00:40:55.241Z,4.10
2018-08-10T00:43:26.063Z,4.20
2018-08-10T00:45:57.272Z,4.10
2018-08-10T00:48:27.960Z,5.97
2018-08-10T00:50:59.096Z,5.97
2018-08-10T00:53:30.044Z,4.83
2018-08-10T00:56:01.309Z,7.33
2018-08-10T00:58:32.602Z,5.37
2018-08-10T01:01:04.729Z,8.30
2018-08-10T01:03:35.663Z,4.43
2018-08-10T01:06:07.435Z,5.53
2018-08-10T01:08:39.327Z,3.77
2018-08-10T01:11:10.408Z,5.70
2018-08-10T01:13:42.310Z,5.77
2018-08-10T01:16:13.190Z,4.53
2018-08-10T01:18:44.560Z,5.87
2018-08-10T01:21:15.444Z,8.23
2018-08-10T01:23:46.656Z,5.53
2018-08-10T01:26:17.945Z,6.43
2018-08-10T01:28:48.802Z,9.53
2018-08-10T01:31:20.729Z,6.37
2018-08-10T01:33:52.502Z,3.83
2018-08-10T01:36:23.612Z,6.63
2018-08-10T01:38:54.190Z,8.47
2018-08-10T01:41:29.175Z,4.93
2018-08-10T01:44:00.413Z,6.17
2018-08-10T01:46:31.717Z,8.80
2018-08-10T01:49:03.268Z,7.40
2018-08-10T01:51:33.983Z,8.90
2018-08-10T01:54:06.331Z,7.83
2018-08-10T01:56:37.504Z,8.07
2018-08-10T01:59:08.897Z,4.97
2018-08-10T02:01:49.001Z,5.83
2018-08-10T02:04:20.048Z,7.93
2018-08-10T02:06:51.086Z,6.13
2018-08-10T02:09:22.640Z,5.83
2018-08-10T02:11:53.712Z,7.67
2018-08-10T02:14:34.711Z,5.20
2018-08-10T02:17:06.698Z,6.53
2018-08-10T02:19:37.654Z,4.13
2018-08-10T02:22:09.097Z,4.90
2018-08-10T02:24:40.518Z,5.97
2018-08-10T02:27:11.665Z,6.43
2018-08-10T02:29:42.833Z,4.13
2018-08-10T02:32:17.618Z,5.60
2018-08-10T02:34:48.722Z,5.10
2018-08-10T02:37:20.062Z,4.13
2018-08-10T02:40:02.475Z,6.63
2018-08-10T02:42:34.019Z,6.20
2018-08-10T02:45:05.063Z,3.73
2018-08-10T02:47:36.728Z,4.80
2018-08-10T02:50:07.728Z,7.63
2018-08-10T02:52:39.009Z,5.83
2018-08-10T02:55:10.569Z,6.23
2018-08-10T02:57:42.196Z,7.53
2018-08-10T03:00:15.540Z,5.37
2018-08-10T03:02:47.289Z,5.13
2018-08-10T03:05:22.747Z,5.40
2018-08-10T03:07:54.103Z,7.73
2018-08-10T03:10:25.615Z,7.53
2018-08-10T03:12:56.675Z,6.83
2018-08-10T03:15:33.508Z,5.00
2018-08-10T03:18:04.571Z,7.73
2018-08-10T03:20:36.339Z,6.53
2018-08-10T03:23:08.125Z,6.17
2018-08-10T03:25:39.185Z,9.00
2018-08-10T03:28:10.503Z,6.40
2018-08-10T03:30:42.082Z,7.97
2018-08-10T03:33:16.284Z,12.73
2018-08-10T03:35:47.948Z,8.50
2018-08-10T03:38:20.093Z,11.30
2018-08-10T03:40:51.999Z,7.50
2018-08-10T03:43:23.918Z,9.93
2018-08-10T03:45:55.515Z,9.23
2018-08-10T03:48:27.139Z,7.60
2018-08-10T03:50:58.380Z,7.40
2018-08-10T03:53:29.292Z,6.40
2018-08-10T03:56:00.172Z,5.37
2018-08-10T03:58:35.467Z,8.17
2018-08-10T04:01:06.131Z,8.33
2018-08-10T04:03:39.575Z,7.63
2018-08-10T04:06:10.869Z,7.30
2018-08-10T04:08:42.165Z,10.13
2018-08-10T04:11:13.464Z,7.17
2018-08-10T04:13:45.040Z,9.40
2018-08-10T04:16:16.228Z,9.37
2018-08-10T04:18:47.150Z,7.77
2018-08-10T04:21:18.367Z,7.13
2018-08-10T04:23:49.722Z,9.27
2018-08-10T04:26:21.126Z,5.47
2018-08-10T04:28:51.975Z,6.63
2018-08-10T04:31:23.692Z,8.93
2018-08-10T04:33:54.522Z,9.73
2018-08-10T04:36:25.990Z,9.23
2018-08-10T04:38:57.855Z,8.87
2018-08-10T04:41:29.355Z,10.50
2018-08-10T04:44:00.939Z,10.37
2018-08-10T04:46:32.355Z,13.37
2018-08-10T04:49:03.952Z,7.20
2018-08-10T04:51:35.710Z,11.43
2018-08-10T04:54:07.032Z,8.93
2018-08-10T04:56:38.182Z,14.37
2018-08-10T04:59:15.523Z,9.70
2018-08-10T05:01:46.607Z,10.30
2018-08-10T05:04:17.830Z,6.37
2018-08-10T05:06:48.601Z,7.87
2018-08-10T05:09:20.324Z,11.33
2018-08-10T05:11:51.642Z,9.37
2018-08-10T05:14:23.533Z,8.10
2018-08-10T05:16:54.945Z,6.97
2018-08-10T05:19:25.969Z,9.40
2018-08-10T05:21:57.069Z,7.77
2018-08-10T05:24:28.868Z,6.97
2018-08-10T05:27:01.952Z,8.80
2018-08-10T05:29:33.434Z,8.57
2018-08-10T05:32:04.784Z,8.10
2018-08-10T05:34:40.316Z,11.53
2018-08-10T05:37:12.060Z,8.10
2018-08-10T05:39:44.024Z,6.63
2018-08-10T05:42:15.206Z,8.30
2018-08-10T05:44:49.077Z,9.60
2018-08-10T05:47:20.674Z,9.73
2018-08-10T05:49:52.954Z,7.53
2018-08-10T05:52:24.276Z,6.63
2018-08-10T05:54:55.473Z,7.60
2018-08-10T05:57:27.183Z,6.50
2018-08-10T05:59:59.664Z,9.77
2018-08-10T06:02:30.833Z,8.93
2018-08-10T06:05:03.411Z,10.23
2018-08-10T06:07:33.322Z,8.83
2018-08-10T06:10:06.206Z,12.10
2018-08-10T06:12:36.039Z,6.73
2018-08-10T06:15:29.722Z,13.67
2018-08-10T06:18:00.276Z,8.10
2018-08-10T06:20:30.899Z,11.67
2018-08-10T06:23:01.819Z,11.63
2018-08-10T06:25:32.847Z,9.37
2018-08-10T06:28:05.130Z,8.17
2018-08-10T06:30:35.714Z,5.97
2018-08-10T06:33:06.174Z,10.63
2018-08-10T06:35:36.395Z,9.73
2018-08-10T06:38:06.504Z,9.63
2018-08-10T06:40:45.555Z,11.70
2018-08-10T06:43:15.828Z,6.40
2018-08-10T06:45:45.757Z,9.77
2018-08-10T06:48:20.406Z,9.60
2018-08-10T06:50:50.687Z,12.40
2018-08-10T06:53:21.635Z,14.20
2018-08-10T06:55:52.620Z,10.17
2018-08-10T06:58:23.533Z,12.40
2018-08-10T07:00:53.803Z,11.07
2018-08-10T07:03:23.404Z,9.07
2018-08-10T07:05:52.742Z,11.23
2018-08-10T07:08:21.973Z,10.20
2018-08-10T07:10:51.204Z,10.20
2018-08-10T07:13:21.671Z,10.23
2018-08-10T07:15:50.804Z,8.67
2018-08-10T07:18:20.190Z,10.30
2018-08-10T07:20:49.227Z,9.37
2018-08-10T07:23:18.406Z,12.10
2018-08-10T07:25:47.632Z,13.60
2018-08-10T07:28:17.203Z,12.90
2018-08-10T07:30:51.320Z,12.07
2018-08-10T07:33:20.597Z,11.17
2018-08-10T07:35:50.487Z,9.23
2018-08-10T07:39:17.488Z,12.50
2018-08-10T07:41:47.055Z,10.87
2018-08-10T07:44:16.359Z,8.97
2018-08-10T07:46:52.130Z,11.37
2018-08-10T07:49:20.934Z,8.43
2018-08-10T07:51:53.462Z,10.43
2018-08-10T07:54:22.219Z,6.07
2018-08-10T07:56:56.342Z,9.20
2018-08-10T07:59:25.150Z,10.47
2018-08-10T08:02:00.321Z,9.37
2018-08-10T08:04:29.055Z,14.10
2018-08-10T08:06:58.098Z,11.63
2018-08-10T08:09:27.049Z,9.27
2018-08-10T08:11:57.069Z,10.87
2018-08-10T08:14:37.586Z,12.00
2018-08-10T08:17:06.286Z,8.30
2018-08-10T08:19:36.152Z,9.23
2018-08-10T08:22:14.888Z,5.53
2018-08-10T08:24:43.956Z,11.40
2018-08-10T08:27:19.614Z,13.27
2018-08-10T08:29:48.445Z,9.70
2018-08-10T08:32:17.501Z,7.80
2018-08-10T08:34:49.765Z,6.70
2018-08-10T08:37:19.754Z,9.73
2018-08-10T08:40:26.731Z,7.57
2018-08-10T08:42:57.583Z,8.07
2018-08-10T08:46:03.019Z,8.53
2018-08-10T08:48:34.427Z,9.97
2018-08-10T08:51:04.839Z,6.60
2018-08-10T08:53:34.563Z,7.57
2018-08-10T08:56:15.097Z,6.63
2018-08-10T08:58:45.278Z,7.47
2018-08-10T09:01:14.561Z,7.43
2018-08-10T09:04:32.922Z,9.53
2018-08-10T09:07:01.722Z,8.90
2018-08-10T09:09:38.804Z,5.93
2018-08-10T09:12:07.778Z,8.33
2018-08-10T09:14:44.885Z,7.47
2018-08-10T09:17:14.238Z,7.10
2018-08-10T09:19:43.256Z,5.33
2018-08-10T09:22:19.016Z,4.93
2018-08-10T09:24:48.000Z,7.33
2018-08-10T09:27:22.953Z,5.57
2018-08-10T09:29:51.936Z,3.60
2018-08-10T09:32:21.179Z,6.07
2018-08-10T09:34:50.024Z,8.23
2018-08-10T09:37:18.798Z,8.73
2018-08-10T09:39:47.844Z,5.93
2018-08-10T09:42:20.660Z,5.13
2018-08-10T09:44:49.538Z,6.10
2018-08-10T09:47:18.282Z,7.07
2018-08-10T09:49:48.324Z,9.30
2018-08-10T09:52:19.088Z,7.50
2018-08-10T09:55:22.013Z,4.90
2018-08-10T09:57:52.545Z,5.67
2018-08-10T10:00:28.407Z,6.43
2018-08-10T10:03:02.441Z,6.70
2018-08-10T10:05:31.404Z,7.53
2018-08-10T10:08:01.385Z,6.30
2018-08-10T10:10:30.596Z,8.00
2018-08-10T10:12:59.634Z,5.80
2018-08-10T10:15:29.099Z,7.57
2018-08-10T10:17:57.988Z,8.90
2018-08-10T10:20:29.116Z,7.17
2018-08-10T10:22:57.992Z,6.13
2018-08-10T10:25:37.041Z,7.47
2018-08-10T10:28:05.919Z,4.90
2018-08-10T10:30:46.009Z,5.70
2018-08-10T10:33:14.890Z,3.90
2018-08-10T10:35:44.772Z,8.40
2018-08-10T10:38:14.176Z,7.10
2018-08-10T10:40:43.026Z,5.63
2018-08-10T10:43:11.967Z,5.63
2018-08-10T10:45:40.818Z,4.07
2018-08-10T10:48:09.691Z,5.47
2018-08-10T10:50:38.929Z,3.27
2018-08-10T10:53:07.794Z,4.17
2018-08-10T10:55:36.675Z,2.47
2018-08-10T10:58:16.412Z,4.60
2018-08-10T11:00:47.033Z,2.53
2018-08-10T11:03:15.881Z,4.93
2018-08-10T11:05:44.701Z,8.57
2018-08-10T11:08:13.612Z,4.83
2018-08-10T11:10:42.518Z,3.07
2018-08-10T11:13:11.408Z,7.13
2018-08-10T11:15:40.365Z,5.17
2018-08-10T11:18:15.017Z,4.83
2018-08-10T11:20:43.732Z,4.67
2018-08-10T11:23:12.498Z,2.70
2018-08-10T11:25:41.410Z,4.77
2018-08-10T11:28:10.890Z,5.60
2018-08-10T11:30:40.828Z,5.37
2018-08-10T11:33:10.364Z,4.33
2018-08-10T11:35:39.186Z,3.10
2018-08-10T11:38:08.067Z,7.47
2018-08-10T11:40:42.358Z,5.47
2018-08-10T11:43:11.964Z,4.43
2018-08-10T11:45:40.942Z,5.07
2018-08-10T11:48:09.806Z,3.17
2018-08-10T11:50:38.606Z,4.53
2018-08-10T11:53:08.707Z,4.97
2018-08-10T11:55:38.112Z,5.47
2018-08-10T11:58:07.185Z,3.17
2018-08-10T12:00:36.141Z,5.23
2018-08-10T12:03:05.133Z,5.10
2018-08-10T12:05:34.502Z,4.27
2018-08-10T12:08:03.357Z,2.30
2018-08-10T12:10:34.393Z,4.83
2018-08-10T12:13:03.197Z,5.97
2018-08-10T12:15:31.999Z,5.00
2018-08-10T12:18:00.947Z,3.60
2018-08-10T12:20:30.017Z,6.13
2018-08-10T12:22:58.854Z,3.93
2018-08-10T12:25:28.740Z,4.73
2018-08-10T12:27:57.572Z,3.80
2018-08-10T12:30:26.414Z,4.37
2018-08-10T12:32:56.762Z,3.90
2018-08-10T12:35:25.706Z,6.03
2018-08-10T12:37:54.535Z,3.73
2018-08-10T12:40:23.429Z,3.73
2018-08-10T12:42:53.340Z,5.77
2018-08-10T12:45:29.074Z,6.77
2018-08-10T12:47:58.012Z,3.57
2018-08-10T12:50:31.454Z,6.00
2018-08-10T12:53:00.198Z,6.47
2018-08-10T12:55:31.162Z,3.47
2018-08-10T12:58:00.035Z,6.30
2018-08-10T13:00:32.659Z,5.47
2018-08-10T13:03:01.566Z,8.40
2018-08-10T13:05:33.555Z,2.87
2018-08-10T13:08:02.449Z,5.93
2018-08-10T13:10:34.538Z,4.85
2018-08-10T13:13:03.366Z,5.03
2018-08-10T13:15:32.701Z,4.83
2018-08-10T13:18:01.555Z,3.90
2018-08-10T13:20:30.481Z,3.08
2018-08-10T13:22:59.267Z,3.33
2018-08-10T13:25:28.151Z,2.70
2018-08-10T13:28:11.457Z,5.50
2018-08-10T13:30:40.240Z,4.70
2018-08-10T13:33:09.128Z,3.50
2018-08-10T13:35:38.003Z,2.90
2018-08-10T13:38:07.568Z,3.60
2018-08-10T13:40:40.531Z,2.45
2018-08-10T13:43:09.476Z,3.98
2018-08-10T13:45:38.284Z,2.47
2018-08-10T13:48:07.413Z,2.47
2018-08-10T13:50:36.395Z,3.67
2018-08-10T13:53:10.830Z,5.92
2018-08-10T13:55:40.131Z,3.02
2018-08-10T13:58:16.161Z,4.85
2018-08-10T14:00:45.104Z,4.10
2018-08-10T14:03:20.082Z,3.17
2018-08-10T14:05:48.971Z,5.00
2018-08-10T14:08:17.901Z,3.17
2018-08-10T14:10:59.432Z,2.35
2018-08-10T14:13:28.569Z,3.98
2018-08-10T14:16:03.720Z,2.35
2018-08-10T14:18:33.234Z,7.12
2018-08-10T14:21:03.414Z,1.98
2018-08-10T14:23:33.158Z,3.30
2018-08-10T14:26:03.590Z,2.22
2018-08-10T14:28:32.926Z,3.72
2018-08-10T14:31:02.376Z,2.95
2018-08-10T14:33:31.452Z,2.65
2018-08-10T14:36:01.872Z,4.72
2018-08-10T14:38:31.920Z,4.53
2018-08-10T14:41:01.789Z,3.85
2018-08-10T14:43:31.152Z,5.85
2018-08-10T14:46:02.014Z,7.65
2018-08-10T14:48:30.882Z,5.15
2018-08-10T14:51:03.300Z,3.45
2018-08-10T14:53:32.251Z,7.25
2018-08-10T14:56:05.020Z,2.08
2018-08-10T14:58:33.958Z,3.27
2018-08-10T15:01:05.065Z,3.20
2018-08-10T15:03:34.160Z,3.67
2018-08-10T15:06:04.572Z,4.53
2018-08-10T15:08:33.828Z,1.98
2018-08-10T15:11:06.360Z,3.67
2018-08-10T15:13:35.218Z,4.97
2018-08-10T15:16:08.715Z,4.67
2018-08-10T15:18:37.649Z,4.37
2018-08-10T15:21:09.121Z,3.98
2018-08-10T15:23:38.145Z,2.75
2018-08-10T15:26:07.023Z,2.02
2018-08-10T15:28:35.923Z,4.40
2018-08-10T15:31:06.472Z,2.95
2018-08-10T15:33:35.455Z,4.45
2018-08-10T15:36:06.913Z,3.02
2018-08-10T15:38:35.761Z,2.98
2018-08-10T15:41:06.411Z,4.42
2018-08-10T15:43:45.231Z,4.72
2018-08-10T15:46:14.284Z,2.80
2018-08-10T15:48:44.682Z,3.77
2018-08-10T15:51:18.042Z,2.25
2018-08-10T15:53:46.957Z,6.67
2018-08-10T15:56:21.470Z,5.75
2018-08-10T15:58:51.009Z,4.05
2018-08-10T16:01:19.893Z,3.80
2018-08-10T16:03:49.513Z,2.08
2018-08-10T16:06:24.768Z,2.30
2018-08-10T16:08:53.616Z,3.77
2018-08-10T16:11:22.762Z,4.17
2018-08-10T16:13:51.680Z,4.35
2018-08-10T16:16:20.880Z,3.47
2018-08-10T16:18:49.794Z,2.92
2018-08-10T16:21:23.548Z,2.75
2018-08-10T16:23:52.335Z,2.85
2018-08-10T16:26:21.317Z,3.52
2018-08-10T16:28:50.300Z,2.03
2018-08-10T16:31:19.213Z,3.70
2018-08-10T16:33:48.143Z,4.08
2018-08-10T16:36:17.567Z,7.12
2018-08-10T16:38:47.016Z,5.50
2018-08-10T16:41:21.772Z,2.00
2018-08-10T16:43:50.708Z,4.33
2018-08-10T16:46:24.832Z,2.95
2018-08-10T16:48:53.729Z,3.40
2018-08-10T16:51:22.579Z,1.95
2018-08-10T16:53:52.068Z,3.08
2018-08-10T16:56:20.888Z,2.75
2018-08-10T16:58:54.207Z,2.98
2018-08-10T17:01:23.220Z,3.70
2018-08-10T17:03:54.833Z,6.33
2018-08-10T17:06:23.722Z,5.30
2018-08-10T17:08:53.512Z,4.00
2018-08-10T17:11:28.451Z,3.00
2018-08-10T17:14:02.543Z,5.97
2018-08-10T17:16:31.338Z,4.28
2018-08-10T17:19:13.082Z,3.30
2018-08-10T17:21:41.805Z,1.50
2018-08-10T17:24:12.135Z,3.52
2018-08-10T17:26:45.063Z,6.13
2018-08-10T17:29:16.601Z,5.43
2018-08-10T17:31:45.461Z,4.60
2018-08-10T17:34:15.103Z,3.63
2018-08-10T17:36:44.045Z,4.53
2018-08-10T17:39:14.549Z,4.20
2018-08-10T17:41:43.789Z,3.40
2018-08-10T17:44:14.097Z,2.60
2018-08-10T17:46:42.973Z,3.90
2018-08-10T17:49:11.919Z,5.10
2018-08-10T17:51:40.766Z,12.33
2018-08-10T17:54:09.574Z,2.83
2018-08-10T17:56:38.344Z,2.57
2018-08-10T17:59:07.641Z,5.40
2018-08-10T18:01:36.423Z,3.80
2018-08-10T18:04:06.074Z,3.93
2018-08-10T18:06:35.129Z,2.53
2018-08-10T18:09:04.959Z,6.37
2018-08-10T18:11:34.429Z,2.80
2018-08-10T18:14:05.032Z,3.23
2018-08-10T18:16:33.901Z,3.43
2018-08-10T18:19:20.572Z,4.23
2018-08-10T18:21:49.511Z,5.47
2018-08-10T18:24:19.326Z,4.03
2018-08-10T18:26:48.395Z,5.20
2018-08-10T18:29:18.682Z,5.73
2018-08-10T18:31:47.508Z,2.63
2018-08-10T18:34:17.456Z,3.10
2018-08-10T18:36:46.145Z,4.30
2018-08-10T18:39:15.547Z,2.37
2018-08-10T18:41:44.431Z,2.93
2018-08-10T18:44:13.229Z,3.67
2018-08-10T18:46:42.444Z,4.20
2018-08-10T18:49:11.775Z,5.63
2018-08-10T18:51:40.601Z,5.27
2018-08-10T18:54:14.402Z,4.83
2018-08-10T18:56:43.247Z,4.13
2018-08-10T18:59:12.169Z,4.13
2018-08-10T19:01:41.055Z,4.00
2018-08-10T19:04:09.949Z,2.33
2018-08-10T19:06:38.945Z,3.77
2018-08-10T19:09:09.331Z,4.07
2018-08-10T19:11:38.581Z,4.90
2018-08-10T19:14:08.241Z,4.77
2018-08-10T19:16:37.116Z,3.10
2018-08-10T19:19:05.936Z,4.93
2018-08-10T19:21:35.690Z,3.37
2018-08-10T19:24:04.687Z,4.07
2018-08-10T19:26:33.657Z,4.50
2018-08-10T19:29:02.573Z,2.90
2018-08-10T19:31:31.623Z,3.77
2018-08-10T19:34:01.051Z,6.00
2018-08-10T19:36:30.153Z,4.30
2018-08-10T19:38:59.293Z,4.40
2018-08-10T19:41:28.175Z,5.57
2018-08-10T19:43:56.990Z,3.50
2018-08-10T19:46:26.813Z,3.63
2018-08-10T19:48:58.517Z,5.53
2018-08-10T19:51:27.476Z,4.60
2018-08-10T19:53:56.291Z,3.93
2018-08-10T19:56:27.247Z,5.23
2018-08-10T19:58:56.744Z,5.60
2018-08-10T20:01:27.160Z,3.43
2018-08-10T20:03:57.326Z,3.03
2018-08-10T20:06:29.237Z,2.80
2018-08-10T20:08:59.553Z,2.37
2018-08-10T20:11:28.768Z,5.03
2018-08-10T20:13:57.629Z,3.13
2018-08-10T20:16:26.822Z,3.57
2018-08-10T20:18:55.628Z,1.73
2018-08-10T20:21:27.393Z,4.20
2018-08-10T20:23:56.325Z,3.37
2018-08-10T20:26:27.706Z,3.23
2018-08-10T20:28:56.697Z,3.90
2018-08-10T20:31:27.849Z,4.53
2018-08-10T20:33:57.271Z,3.50
2018-08-10T20:36:28.648Z,3.60
2018-08-10T20:38:57.646Z,3.93
2018-08-10T20:41:27.710Z,3.03
2018-08-10T20:43:57.582Z,5.97
2018-08-10T20:46:28.597Z,4.73
2018-08-10T20:49:10.986Z,6.53
2018-08-10T20:51:39.839Z,4.87
2018-08-10T20:54:08.632Z,7.70
2018-08-10T20:56:43.067Z,4.03
2018-08-10T20:59:11.926Z,3.43
2018-08-10T21:01:40.872Z,2.37
2018-08-10T21:04:10.169Z,4.03
2018-08-10T21:06:38.910Z,4.77
2018-08-10T21:09:10.707Z,4.97
2018-08-10T21:11:40.344Z,5.03
2018-08-10T21:14:14.954Z,4.20
2018-08-10T21:16:43.736Z,5.10
2018-08-10T21:19:12.674Z,3.37
2018-08-10T21:21:41.710Z,2.90
2018-08-10T21:24:10.481Z,3.87
2018-08-10T21:26:39.618Z,2.53
2018-08-10T21:29:10.345Z,4.47
2018-08-10T21:31:40.147Z,5.47
2018-08-10T21:34:10.242Z,3.10
2018-08-10T21:36:40.012Z,3.17
2018-08-10T21:39:11.061Z,3.47
2018-08-10T21:41:39.967Z,4.83
2018-08-10T21:44:09.367Z,6.33
2018-08-10T21:46:42.274Z,10.70
2018-08-10T21:49:11.054Z,8.73
2018-08-10T21:51:49.899Z,12.17
2018-08-10T21:54:18.686Z,8.83
2018-08-10T21:56:47.494Z,8.97
2018-08-10T21:59:17.926Z,7.23
2018-08-10T22:01:47.706Z,4.63
2018-08-10T22:04:20.893Z,3.73
2018-08-10T22:06:51.265Z,3.30
2018-08-10T22:09:22.056Z,4.43
2018-08-10T22:11:52.606Z,7.33
2018-08-10T22:14:28.348Z,2.50
2018-08-10T22:17:03.638Z,6.00
2018-08-10T22:19:34.393Z,3.67
2018-08-10T22:22:04.918Z,3.67
2018-08-10T22:24:35.984Z,4.33
2018-08-10T22:27:06.494Z,4.60
2018-08-10T22:29:37.388Z,3.27
2018-08-10T22:32:08.090Z,2.63
2018-08-10T22:34:39.102Z,3.10
2018-08-10T22:37:10.708Z,2.67
2018-08-10T22:39:41.372Z,4.23
2018-08-10T22:42:14.267Z,5.10
2018-08-10T22:44:45.193Z,4.13
2018-08-10T22:47:15.779Z,6.10
2018-08-10T22:49:47.835Z,7.67
2018-08-10T22:52:18.441Z,3.03
2018-08-10T22:54:49.266Z,4.70
2018-08-10T22:57:19.914Z,2.40
2018-08-10T22:59:51.115Z,5.93
2018-08-10T23:02:21.634Z,4.33
2018-08-10T23:04:51.514Z,5.33
2018-08-10T23:07:22.140Z,7.30
2018-08-10T23:09:52.288Z,3.63
2018-08-10T23:12:31.543Z,3.93
2018-08-10T23:15:03.127Z,4.70
2018-08-10T23:17:34.072Z,2.87
2018-08-10T23:20:15.300Z,3.67
2018-08-10T23:22:46.276Z,3.07
2018-08-10T23:25:16.833Z,4.27
2018-08-10T23:27:47.576Z,3.47
2018-08-10T23:30:18.648Z,3.33
2018-08-10T23:32:48.933Z,5.67
2018-08-10T23:35:22.100Z,7.40
2018-08-10T23:37:53.098Z,6.40
2018-08-10T23:40:23.832Z,4.80
2018-08-10T23:42:55.169Z,7.30
2018-08-10T23:45:25.894Z,6.13
2018-08-10T23:47:56.839Z,5.17
2018-08-10T23:50:34.417Z,3.57
2018-08-10T23:53:05.177Z,6.80
2018-08-10T23:55:37.092Z,3.50
2018-08-10T23:58:11.827Z,3.23
